Time;durP1;ratioP1;P1;durP2;ratioP2;P2;SDS_P1;SDS_P2;PMS_P1;PMS_P2;Temp;Humidity;BMP_temperature;BMP_pressure;BME280_temperature;BME280_humidity;BME280_pressure;Samples;Min_cycle;Max_cycle;Signal;HPM_P1;HPM_P2
2022/04/01 00:01:26;;;;;;;35.67;27.17;;;;;;;;;;4985235;28;20769;-38
2022/04/01 00:03:52;;;;;;;34.70;25.87;;;;;;;;;;5007796;28;20689;-38
2022/04/01 00:06:18;;;;;;;39.97;29.07;;;;;;;;;;5004870;28;20179;-39
2022/04/01 00:08:44;;;;;;;40.40;30.07;;;;;;;;;;5005984;28;20285;-38
2022/04/01 00:11:10;;;;;;;38.03;27.40;;;;;;;;;;5003790;28;20416;-39
2022/04/01 00:13:37;;;;;;;38.37;28.27;;;;;;;;;;5005364;28;20430;-39
2022/04/01 00:16:03;;;;;;;39.43;28.57;;;;;;;;;;5008375;28;20195;-39
2022/04/01 00:18:30;;;;;;;41.23;30.40;;;;;;;;;;5006112;28;20418;-39
2022/04/01 00:20:56;;;;;;;40.57;29.63;;;;;;;;;;4985487;28;20465;-38
2022/04/01 00:23:22;;;;;;;35.20;26.47;;;;;;;;;;5005850;28;20588;-39
2022/04/01 00:25:48;;;;;;;39.50;28.00;;;;;;;;;;5008833;28;20172;-38
2022/04/01 00:28:14;;;;;;;41.57;28.13;;;;;;;;;;5005424;28;20778;-39
2022/04/01 00:30:40;;;;;;;38.60;29.83;;;;;;;;;;5006717;28;20741;-39
2022/04/01 00:33:08;;;;;;;37.60;27.47;;;;;;;;;;4990657;28;21093;-39
2022/04/01 00:35:35;;;;;;;38.23;27.40;;;;;;;;;;5002337;28;20508;-38
2022/04/01 00:38:01;;;;;;;31.97;25.20;;;;;;;;;;5002227;28;20589;-38
2022/04/01 00:40:27;;;;;;;36.03;27.57;;;;;;;;;;5005133;28;20664;-38
2022/04/01 00:42:53;;;;;;;29.83;23.17;;;;;;;;;;5007489;28;20411;-39
2022/04/01 00:45:20;;;;;;;26.47;21.60;;;;;;;;;;5003519;28;21145;-39
2022/04/01 00:47:46;;;;;;;27.13;21.97;;;;;;;;;;5004889;28;20406;-38
2022/04/01 00:50:12;;;;;;;25.60;20.83;;;;;;;;;;5006870;28;20826;-38
2022/04/01 00:52:38;;;;;;;23.57;19.03;;;;;;;;;;5004412;28;20958;-38
2022/04/01 00:55:08;;;;;;;24.83;19.57;;;;;;;;;;5002684;28;20825;-38
2022/04/01 00:57:36;;;;;;;24.90;18.27;;;;;;;;;;5007384;28;20958;-38
2022/04/01 01:00:03;;;;;;;23.07;17.10;;;;;;;;;;4985768;28;21137;-38
2022/04/01 01:02:29;;;;;;;19.17;17.03;;;;;;;;;;5004976;28;20188;-38
2022/04/01 01:04:56;;;;;;;21.33;18.03;;;;;;;;;;5003540;28;20649;-38
2022/04/01 01:07:22;;;;;;;19.57;16.30;;;;;;;;;;5006604;28;20991;-38
2022/04/01 01:09:49;;;;;;;20.53;17.63;;;;;;;;;;5002555;28;20434;-38
2022/04/01 01:12:16;;;;;;;18.37;15.70;;;;;;;;;;5001686;28;20883;-38
2022/04/01 01:14:44;;;;;;;20.00;16.33;;;;;;;;;;5001660;28;20528;-39
2022/04/01 01:17:12;;;;;;;22.40;18.07;;;;;;;;;;5006500;28;20422;-38
2022/04/01 01:19:39;;;;;;;21.80;16.43;;;;;;;;;;5004318;28;21630;-39
2022/04/01 01:22:06;;;;;;;20.03;17.73;;;;;;;;;;5003378;28;20426;-39
2022/04/01 01:24:35;;;;;;;22.87;18.53;;;;;;;;;;5004237;28;20938;-38
2022/04/01 01:27:02;;;;;;;22.63;17.43;;;;;;;;;;5004516;28;22016;-39
2022/04/01 01:29:30;;;;;;;22.70;18.57;;;;;;;;;;5003188;28;20835;-38
2022/04/01 01:31:57;;;;;;;19.73;16.47;;;;;;;;;;4963424;28;1201817;-38
2022/04/01 01:34:24;;;;;;;23.93;17.50;;;;;;;;;;5008761;28;20263;-39
2022/04/01 01:36:51;;;;;;;21.23;17.23;;;;;;;;;;5003205;28;20172;-39
2022/04/01 01:39:18;;;;;;;19.27;16.57;;;;;;;;;;5003534;28;20176;-38
2022/04/01 01:41:44;;;;;;;19.40;17.13;;;;;;;;;;5006508;28;20889;-38
2022/04/01 01:44:11;;;;;;;20.83;15.10;;;;;;;;;;5007687;28;20526;-38
2022/04/01 01:46:37;;;;;;;19.83;15.60;;;;;;;;;;4987115;28;21014;-38
2022/04/01 01:49:04;;;;;;;20.60;16.43;;;;;;;;;;5003854;28;21183;-38
2022/04/01 01:57:00;;;;;;;18.70;16.70;;;;;;;;;;5004126;28;20484;-39
2022/04/01 01:59:26;;;;;;;19.70;15.23;;;;;;;;;;5004479;28;20520;-39
2022/04/01 02:01:52;;;;;;;20.63;16.63;;;;;;;;;;5004342;28;20890;-39
2022/04/01 02:04:20;;;;;;;18.53;16.00;;;;;;;;;;5008483;28;20703;-38
2022/04/01 02:06:46;;;;;;;23.53;18.13;;;;;;;;;;5003799;28;21020;-39
2022/04/01 02:09:13;;;;;;;20.90;16.43;;;;;;;;;;5003899;28;20888;-39
2022/04/01 02:11:39;;;;;;;19.03;15.20;;;;;;;;;;5004999;28;20460;-38
2022/04/01 02:14:05;;;;;;;17.63;14.30;;;;;;;;;;5006622;28;20973;-40
2022/04/01 02:16:32;;;;;;;19.90;15.70;;;;;;;;;;5007378;28;20420;-39
2022/04/01 02:18:58;;;;;;;20.77;15.97;;;;;;;;;;5003206;28;20889;-39
2022/04/01 02:21:24;;;;;;;18.47;15.03;;;;;;;;;;5004706;28;20453;-38
2022/04/01 02:23:53;;;;;;;19.47;15.10;;;;;;;;;;5005994;28;20424;-39
2022/04/01 02:26:19;;;;;;;19.23;15.63;;;;;;;;;;5003684;28;20641;-39
2022/04/01 02:28:45;;;;;;;15.57;13.13;;;;;;;;;;5002056;28;20788;-38
2022/04/01 02:31:11;;;;;;;19.07;15.50;;;;;;;;;;5003781;28;20465;-39
2022/04/01 02:33:38;;;;;;;15.17;12.07;;;;;;;;;;4987076;28;20513;-38
2022/04/01 02:36:06;;;;;;;18.93;13.03;;;;;;;;;;5001714;28;20434;-39
2022/04/01 02:38:32;;;;;;;17.53;12.97;;;;;;;;;;4998963;28;20426;-40
2022/04/01 02:40:59;;;;;;;15.87;11.50;;;;;;;;;;5001471;28;21013;-38
2022/04/01 02:43:26;;;;;;;16.97;13.43;;;;;;;;;;5004904;28;20431;-38
2022/04/01 02:45:52;;;;;;;12.73;10.13;;;;;;;;;;5003746;28;21081;-39
2022/04/01 02:48:20;;;;;;;16.53;12.20;;;;;;;;;;5003149;28;20878;-38
2022/04/01 02:50:47;;;;;;;16.50;12.97;;;;;;;;;;5007271;28;20938;-38
2022/04/01 02:53:15;;;;;;;14.10;11.57;;;;;;;;;;5004663;28;20775;-38
2022/04/01 02:55:41;;;;;;;17.03;10.57;;;;;;;;;;5002779;28;20418;-38
2022/04/01 02:58:07;;;;;;;14.07;9.87;;;;;;;;;;5003195;28;20516;-38
2022/04/01 03:00:35;;;;;;;13.80;9.40;;;;;;;;;;5006710;28;20529;-40
2022/04/01 03:03:06;;;;;;;15.70;9.63;;;;;;;;;;5002298;28;20960;-39
2022/04/01 03:05:33;;;;;;;14.03;9.87;;;;;;;;;;5002841;28;20410;-39
2022/04/01 03:08:00;;;;;;;15.13;11.43;;;;;;;;;;5002329;28;20987;-38
2022/04/01 03:10:27;;;;;;;15.83;10.97;;;;;;;;;;5006448;28;20414;-38
2022/04/01 03:12:53;;;;;;;13.10;10.17;;;;;;;;;;5003085;28;21132;-39
2022/04/01 03:15:19;;;;;;;13.27;11.13;;;;;;;;;;5003553;28;20406;-39
2022/04/01 03:17:46;;;;;;;14.53;11.40;;;;;;;;;;5006845;28;20910;-38
2022/04/01 03:20:13;;;;;;;16.27;11.40;;;;;;;;;;5003572;28;20508;-38
2022/04/01 03:22:43;;;;;;;13.63;10.27;;;;;;;;;;5003236;28;20913;-38
2022/04/01 03:25:18;;;;;;;14.03;10.33;;;;;;;;;;4991980;28;21024;-38
2022/04/01 03:27:45;;;;;;;12.23;9.50;;;;;;;;;;5006752;28;20630;-38
2022/04/01 03:30:11;;;;;;;10.87;9.20;;;;;;;;;;5003947;28;20439;-39
2022/04/01 03:32:38;;;;;;;13.10;9.10;;;;;;;;;;5008476;28;20462;-40
2022/04/01 03:35:05;;;;;;;14.77;9.97;;;;;;;;;;5010588;28;20537;-38
2022/04/01 03:37:32;;;;;;;14.97;10.33;;;;;;;;;;5004028;28;20414;-39
2022/04/01 03:39:58;;;;;;;15.00;11.27;;;;;;;;;;5007145;28;20965;-38
2022/04/01 03:42:29;;;;;;;17.43;12.37;;;;;;;;;;5009117;28;20527;-38
2022/04/01 03:44:56;;;;;;;16.43;13.30;;;;;;;;;;5007968;28;20535;-38
2022/04/01 03:47:25;;;;;;;20.47;13.80;;;;;;;;;;5006394;28;20984;-39
2022/04/01 03:49:55;;;;;;;14.10;11.60;;;;;;;;;;5007290;28;20414;-38
2022/04/01 03:52:21;;;;;;;15.57;11.37;;;;;;;;;;5009467;28;21103;-38
2022/04/01 03:54:48;;;;;;;12.03;10.17;;;;;;;;;;5008663;28;20419;-38
2022/04/01 03:57:15;;;;;;;14.77;11.07;;;;;;;;;;5005384;28;20415;-39
2022/04/01 03:59:42;;;;;;;17.07;12.33;;;;;;;;;;5008846;28;21126;-38
2022/04/01 04:02:12;;;;;;;15.00;11.50;;;;;;;;;;5006835;28;20423;-38
2022/04/01 04:04:39;;;;;;;15.00;12.40;;;;;;;;;;5004270;28;21076;-38
2022/04/01 04:07:09;;;;;;;19.60;13.10;;;;;;;;;;5006761;28;20971;-38
2022/04/01 04:09:38;;;;;;;19.40;13.97;;;;;;;;;;5010313;28;20877;-39
2022/04/01 04:12:06;;;;;;;18.00;13.20;;;;;;;;;;5003743;28;21169;-39
2022/04/01 04:14:32;;;;;;;16.07;13.00;;;;;;;;;;5007646;28;20979;-38
2022/04/01 04:17:00;;;;;;;18.50;13.73;;;;;;;;;;5006671;28;20431;-39
2022/04/01 04:19:47;;;;;;;30.50;20.93;;;;;;;;;;5007189;28;20418;-38
2022/04/01 04:22:14;;;;;;;24.53;17.27;;;;;;;;;;5004140;28;21082;-38
2022/04/01 04:24:44;;;;;;;21.63;17.30;;;;;;;;;;5008179;28;20854;-38
2022/04/01 04:27:12;;;;;;;30.00;23.57;;;;;;;;;;5009507;28;20517;-38
2022/04/01 04:29:48;;;;;;;35.97;26.43;;;;;;;;;;5005436;28;20958;-38
2022/04/01 04:32:34;;;;;;;39.47;25.83;;;;;;;;;;5004700;28;20569;-38
2022/04/01 04:35:05;;;;;;;40.40;30.03;;;;;;;;;;5008491;28;20771;-38
2022/04/01 04:37:33;;;;;;;37.97;28.77;;;;;;;;;;5005311;28;20428;-39
2022/04/01 04:40:01;;;;;;;39.97;29.50;;;;;;;;;;4981531;28;20496;-39
2022/04/01 04:42:28;;;;;;;45.10;32.77;;;;;;;;;;4989112;28;20767;-38
2022/04/01 04:44:54;;;;;;;38.97;29.53;;;;;;;;;;5004551;28;20432;-38
2022/04/01 04:47:28;;;;;;;36.40;28.03;;;;;;;;;;4996678;28;20753;-39
2022/04/01 04:49:56;;;;;;;35.17;28.30;;;;;;;;;;5004201;28;20422;-38
2022/04/01 04:52:22;;;;;;;31.10;24.43;;;;;;;;;;5007604;28;20469;-39
2022/04/01 04:54:50;;;;;;;31.40;22.73;;;;;;;;;;5003787;28;20655;-38
2022/04/01 04:57:16;;;;;;;34.97;24.93;;;;;;;;;;4999235;28;21001;-39
2022/04/01 04:59:42;;;;;;;26.20;20.83;;;;;;;;;;5003198;28;20434;-38
2022/04/01 05:02:16;;;;;;;26.77;19.90;;;;;;;;;;5006520;28;20495;-38
2022/04/01 05:04:55;;;;;;;22.23;17.07;;;;;;;;;;4982389;28;20847;-38
2022/04/01 05:07:31;;;;;;;21.53;15.93;;;;;;;;;;5007064;28;20419;-38
2022/04/01 05:10:03;;;;;;;20.73;15.17;;;;;;;;;;5007444;28;20410;-38
2022/04/01 05:12:49;;;;;;;23.10;16.37;;;;;;;;;;5006318;28;21050;-38
2022/04/01 05:15:19;;;;;;;18.73;15.27;;;;;;;;;;5002591;28;20697;-38
2022/04/01 05:17:48;;;;;;;21.10;15.27;;;;;;;;;;5001751;28;20427;-38
2022/04/01 05:20:17;;;;;;;25.20;15.83;;;;;;;;;;5008679;28;20898;-38
2022/04/01 05:22:48;;;;;;;28.40;18.50;;;;;;;;;;5006234;28;20403;-39
2022/04/01 05:25:19;;;;;;;23.77;16.90;;;;;;;;;;4980861;28;21256;-38
2022/04/01 05:27:48;;;;;;;25.97;16.43;;;;;;;;;;5003467;28;20424;-38
2022/04/01 05:30:18;;;;;;;24.83;17.30;;;;;;;;;;5006877;28;20450;-40
2022/04/01 05:33:02;;;;;;;25.97;18.27;;;;;;;;;;5005618;28;20477;-38
2022/04/01 05:35:30;;;;;;;21.77;16.67;;;;;;;;;;5003607;28;20795;-38
2022/04/01 05:37:58;;;;;;;28.03;19.47;;;;;;;;;;5008015;28;20453;-38
2022/04/01 05:40:24;;;;;;;26.00;18.40;;;;;;;;;;5007753;28;20497;-39
2022/04/01 05:42:52;;;;;;;27.33;20.03;;;;;;;;;;5003123;28;20726;-39
2022/04/01 05:45:20;;;;;;;30.10;20.37;;;;;;;;;;5005405;28;20418;-38
2022/04/01 05:47:47;;;;;;;31.73;21.20;;;;;;;;;;5005749;28;20513;-38
2022/04/01 05:50:14;;;;;;;36.73;24.33;;;;;;;;;;5004681;28;20789;-38
2022/04/01 05:52:40;;;;;;;38.63;24.97;;;;;;;;;;5001902;28;20527;-39
2022/04/01 05:55:07;;;;;;;37.00;23.73;;;;;;;;;;5007241;28;20900;-38
2022/04/01 05:57:34;;;;;;;36.27;24.93;;;;;;;;;;5004770;28;20457;-38
2022/04/01 06:00:00;;;;;;;35.07;23.43;;;;;;;;;;5005127;28;20406;-39
2022/04/01 06:02:42;;;;;;;43.37;27.17;;;;;;;;;;5008660;28;20414;-38
2022/04/01 06:05:27;;;;;;;42.13;28.17;;;;;;;;;;5005366;28;20410;-40
2022/04/01 06:08:05;;;;;;;44.50;29.13;;;;;;;;;;5010607;28;20418;-38
2022/04/01 06:10:31;;;;;;;42.03;31.53;;;;;;;;;;5005963;28;21015;-38
2022/04/01 06:12:57;;;;;;;48.13;33.30;;;;;;;;;;5004994;28;20453;-38
2022/04/01 06:15:39;;;;;;;46.03;32.97;;;;;;;;;;4980056;28;20948;-38
2022/04/01 06:18:05;;;;;;;44.60;31.63;;;;;;;;;;5005715;28;20599;-39
2022/04/01 06:20:33;;;;;;;44.07;32.00;;;;;;;;;;5005604;28;21061;-39
2022/04/01 06:23:04;;;;;;;46.37;32.47;;;;;;;;;;5002506;28;20733;-39
2022/04/01 06:25:31;;;;;;;42.30;32.00;;;;;;;;;;5005746;28;20756;-39
2022/04/01 06:28:19;;;;;;;48.17;34.10;;;;;;;;;;5003992;28;21141;-38
2022/04/01 06:30:45;;;;;;;46.27;33.37;;;;;;;;;;5003750;28;21248;-38
2022/04/01 06:33:23;;;;;;;43.57;33.27;;;;;;;;;;5003467;28;20556;-39
2022/04/01 06:36:04;;;;;;;46.13;34.27;;;;;;;;;;5002088;28;20470;-39
2022/04/01 06:38:36;;;;;;;46.80;33.37;;;;;;;;;;5001693;28;20418;-38
2022/04/01 06:41:07;;;;;;;44.93;31.17;;;;;;;;;;5003045;28;20420;-38
2022/04/01 06:43:35;;;;;;;44.60;32.73;;;;;;;;;;5003235;28;20399;-39
2022/04/01 06:46:02;;;;;;;44.87;32.83;;;;;;;;;;5005325;28;20429;-39
2022/04/01 06:48:28;;;;;;;46.00;32.83;;;;;;;;;;5003749;28;20553;-39
2022/04/01 06:50:55;;;;;;;46.83;32.47;;;;;;;;;;5003283;28;20418;-39
2022/04/01 06:53:21;;;;;;;48.50;35.67;;;;;;;;;;5003169;28;20827;-39
2022/04/01 06:55:47;;;;;;;46.83;33.43;;;;;;;;;;5006063;28;20173;-39
2022/04/01 06:58:14;;;;;;;47.07;35.70;;;;;;;;;;5002322;28;20810;-39
2022/04/01 07:00:43;;;;;;;42.10;32.97;;;;;;;;;;5006125;28;20564;-39
2022/04/01 07:03:10;;;;;;;40.27;30.33;;;;;;;;;;5008237;28;20618;-38
2022/04/01 07:05:37;;;;;;;44.90;32.57;;;;;;;;;;5009051;28;20332;-39
2022/04/01 07:08:03;;;;;;;40.63;30.77;;;;;;;;;;5005478;28;20662;-39
2022/04/01 07:10:30;;;;;;;39.93;31.03;;;;;;;;;;5003936;28;20605;-39
2022/04/01 07:12:56;;;;;;;37.83;29.23;;;;;;;;;;4989707;28;20608;-38
2022/04/01 07:15:22;;;;;;;44.00;31.57;;;;;;;;;;5011165;28;20405;-39
2022/04/01 07:17:49;;;;;;;33.53;27.33;;;;;;;;;;5002538;28;20636;-39
2022/04/01 07:20:15;;;;;;;34.60;27.30;;;;;;;;;;5005487;28;20821;-39
2022/04/01 07:22:42;;;;;;;35.03;27.43;;;;;;;;;;5007327;28;20854;-39
2022/04/01 07:25:09;;;;;;;41.27;30.30;;;;;;;;;;5009770;28;20442;-39
2022/04/01 07:27:36;;;;;;;32.83;27.00;;;;;;;;;;5003657;28;20180;-39
2022/04/01 07:30:03;;;;;;;33.30;25.00;;;;;;;;;;5003679;28;20479;-39
2022/04/01 07:32:34;;;;;;;33.60;25.33;;;;;;;;;;5005913;28;20321;-39
2022/04/01 07:35:01;;;;;;;33.03;25.80;;;;;;;;;;5009789;28;21170;-39
2022/04/01 07:37:28;;;;;;;30.60;23.97;;;;;;;;;;5004849;28;20615;-39
2022/04/01 07:39:56;;;;;;;32.10;23.80;;;;;;;;;;5005125;28;20169;-39
2022/04/01 07:42:22;;;;;;;33.27;23.17;;;;;;;;;;5003121;28;20187;-39
2022/04/01 07:44:49;;;;;;;28.80;22.03;;;;;;;;;;5007303;28;20349;-39
2022/04/01 07:47:16;;;;;;;29.47;22.80;;;;;;;;;;5005983;28;20192;-39
2022/04/01 07:49:43;;;;;;;25.50;21.17;;;;;;;;;;5004608;28;20424;-39
2022/04/01 07:52:09;;;;;;;26.33;20.37;;;;;;;;;;5003883;28;20196;-38
2022/04/01 07:54:36;;;;;;;26.80;21.87;;;;;;;;;;5005848;28;20624;-40
2022/04/01 07:57:03;;;;;;;23.73;19.83;;;;;;;;;;5008004;28;20172;-38
2022/04/01 07:59:29;;;;;;;25.87;20.20;;;;;;;;;;4990151;28;20180;-39
2022/04/01 08:01:55;;;;;;;23.97;19.43;;;;;;;;;;5004837;28;20828;-41
2022/04/01 08:04:21;;;;;;;26.00;20.27;;;;;;;;;;5004434;28;20176;-40
2022/04/01 08:06:47;;;;;;;22.20;17.87;;;;;;;;;;5007382;28;21041;-39
2022/04/01 08:09:13;;;;;;;20.37;15.80;;;;;;;;;;5005380;28;20271;-40
2022/04/01 08:11:39;;;;;;;20.73;16.30;;;;;;;;;;5006445;28;20625;-39
2022/04/01 08:14:05;;;;;;;16.00;14.10;;;;;;;;;;5009027;28;20183;-40
2022/04/01 08:16:31;;;;;;;18.53;14.73;;;;;;;;;;5006783;28;20164;-39
2022/04/01 08:18:58;;;;;;;16.73;13.33;;;;;;;;;;4986631;28;20806;-40
2022/04/01 08:21:24;;;;;;;18.23;13.03;;;;;;;;;;5007014;28;20264;-40
2022/04/01 08:23:50;;;;;;;17.00;12.03;;;;;;;;;;5009355;28;20215;-40
2022/04/01 08:26:16;;;;;;;13.87;11.77;;;;;;;;;;5004082;28;20235;-39
2022/04/01 08:28:42;;;;;;;13.70;9.80;;;;;;;;;;5005564;28;20653;-39
2022/04/01 08:31:09;;;;;;;11.13;9.70;;;;;;;;;;5006631;28;20432;-39
2022/04/01 08:33:35;;;;;;;11.90;9.03;;;;;;;;;;5010838;28;20211;-39
2022/04/01 08:36:02;;;;;;;12.37;10.07;;;;;;;;;;5008929;28;20563;-39
2022/04/01 08:38:28;;;;;;;12.63;9.10;;;;;;;;;;5002199;28;20635;-39
2022/04/01 08:40:54;;;;;;;10.50;9.40;;;;;;;;;;5006980;28;20185;-39
2022/04/01 08:43:28;;;;;;;13.53;9.07;;;;;;;;;;5011073;28;20187;-40
2022/04/01 08:45:56;;;;;;;10.13;8.23;;;;;;;;;;5005881;28;20183;-39
2022/04/01 08:48:22;;;;;;;11.43;7.90;;;;;;;;;;5005097;28;20176;-39
2022/04/01 08:50:49;;;;;;;9.67;8.67;;;;;;;;;;5007692;28;20194;-38
2022/04/01 08:53:15;;;;;;;10.47;7.93;;;;;;;;;;5009690;28;20622;-39
2022/04/01 08:55:45;;;;;;;10.27;8.10;;;;;;;;;;4989397;28;20417;-39
2022/04/01 08:58:11;;;;;;;10.13;8.53;;;;;;;;;;4988253;28;20176;-39
2022/04/01 09:00:38;;;;;;;10.40;7.90;;;;;;;;;;5005291;28;20577;-39
2022/04/01 09:03:09;;;;;;;9.87;7.57;;;;;;;;;;5008367;28;20559;-40
2022/04/01 09:05:36;;;;;;;14.00;9.10;;;;;;;;;;5009594;28;20191;-41
2022/04/01 09:08:03;;;;;;;11.73;8.87;;;;;;;;;;5003251;28;20176;-40
2022/04/01 09:10:30;;;;;;;10.40;8.40;;;;;;;;;;5006952;28;20188;-39
2022/04/01 09:12:56;;;;;;;11.13;9.23;;;;;;;;;;5006973;28;20203;-38
2022/04/01 09:15:22;;;;;;;12.50;10.23;;;;;;;;;;5004657;28;20607;-40
2022/04/01 09:17:49;;;;;;;13.10;9.30;;;;;;;;;;5005924;28;20199;-38
2022/04/01 09:20:15;;;;;;;10.80;9.60;;;;;;;;;;5006971;28;20176;-39
2022/04/01 09:22:42;;;;;;;14.17;9.83;;;;;;;;;;5005405;28;20693;-38
2022/04/01 09:25:09;;;;;;;9.90;8.87;;;;;;;;;;5003402;28;20223;-41
2022/04/01 09:27:49;;;;;;;13.87;8.90;;;;;;;;;;5007022;28;20198;-38
2022/04/01 09:30:20;;;;;;;11.00;8.77;;;;;;;;;;5006235;28;20293;-38
2022/04/01 09:32:55;;;;;;;14.40;9.70;;;;;;;;;;5001660;28;20231;-38
2022/04/01 09:35:23;;;;;;;10.80;9.33;;;;;;;;;;5007913;28;20965;-39
2022/04/01 09:37:59;;;;;;;10.93;8.97;;;;;;;;;;5006884;28;20172;-38
2022/04/01 09:40:26;;;;;;;13.00;9.53;;;;;;;;;;4981532;28;20183;-38
2022/04/01 09:42:55;;;;;;;10.50;8.43;;;;;;;;;;5002345;28;20213;-38
2022/04/01 09:45:21;;;;;;;12.37;8.87;;;;;;;;;;5007212;28;20291;-38
2022/04/01 09:47:57;;;;;;;12.23;9.27;;;;;;;;;;5006811;28;20183;-38
2022/04/01 09:50:26;;;;;;;12.47;9.40;;;;;;;;;;5004739;28;20398;-38
2022/04/01 09:52:52;;;;;;;15.60;10.03;;;;;;;;;;5005961;28;20327;-38
2022/04/01 09:55:19;;;;;;;15.60;9.83;;;;;;;;;;5005659;28;20182;-38
2022/04/01 09:57:45;;;;;;;13.17;9.43;;;;;;;;;;5004004;28;20542;-38
2022/04/01 10:00:12;;;;;;;11.33;9.20;;;;;;;;;;5003633;28;20708;-38
2022/04/01 10:02:38;;;;;;;12.07;9.13;;;;;;;;;;5005590;28;20275;-40
2022/04/01 10:05:06;;;;;;;13.87;10.10;;;;;;;;;;5005690;28;20408;-39
2022/04/01 10:07:33;;;;;;;13.17;9.97;;;;;;;;;;5003593;28;20928;-39
2022/04/01 10:10:00;;;;;;;13.03;9.77;;;;;;;;;;5006328;28;20183;-39
2022/04/01 10:12:28;;;;;;;12.57;9.73;;;;;;;;;;5003895;28;20262;-39
2022/04/01 10:14:58;;;;;;;11.60;9.37;;;;;;;;;;5005791;28;20710;-38
2022/04/01 10:17:26;;;;;;;15.27;10.53;;;;;;;;;;5006818;28;20749;-39
2022/04/01 10:19:53;;;;;;;13.20;10.10;;;;;;;;;;5006176;28;20187;-39
2022/04/01 10:22:19;;;;;;;13.20;9.90;;;;;;;;;;5003683;28;20176;-39
2022/04/01 10:25:04;;;;;;;13.43;10.00;;;;;;;;;;5005394;28;20708;-38
2022/04/01 10:27:41;;;;;;;13.20;9.83;;;;;;;;;;5006565;28;20187;-38
2022/04/01 10:30:09;;;;;;;10.87;9.23;;;;;;;;;;5007040;28;20202;-38
2022/04/01 10:32:35;;;;;;;14.27;9.83;;;;;;;;;;5004437;28;20207;-38
2022/04/01 10:35:02;;;;;;;13.77;10.27;;;;;;;;;;5008505;28;20416;-37
2022/04/01 10:37:30;;;;;;;11.73;9.13;;;;;;;;;;5009160;28;20537;-38
2022/04/01 10:40:00;;;;;;;12.30;9.57;;;;;;;;;;5011017;28;20566;-38
2022/04/01 10:42:36;;;;;;;12.87;9.33;;;;;;;;;;4989646;28;20184;-38
2022/04/01 10:45:05;;;;;;;13.90;9.37;;;;;;;;;;5011408;28;20998;-37
2022/04/01 10:53:39;;;;;;;12.20;9.03;;;;;;;;;;5012701;28;20781;-38
2022/04/01 10:56:25;;;;;;;15.27;9.37;;;;;;;;;;4993845;28;20533;-38
2022/04/01 10:59:10;;;;;;;12.77;10.10;;;;;;;;;;5008852;28;20368;-38
2022/04/01 11:01:38;;;;;;;12.60;9.67;;;;;;;;;;5012000;28;20200;-38
2022/04/01 11:04:08;;;;;;;12.80;10.00;;;;;;;;;;5007315;28;20499;-38
2022/04/01 11:06:49;;;;;;;13.87;9.87;;;;;;;;;;4982753;28;20226;-39
2022/04/01 11:09:34;;;;;;;16.90;10.50;;;;;;;;;;5008292;28;20832;-38
2022/04/01 11:12:16;;;;;;;12.67;9.30;;;;;;;;;;5008245;28;20301;-38
2022/04/01 11:14:57;;;;;;;12.57;9.43;;;;;;;;;;5005285;28;20715;-38
2022/04/01 11:17:25;;;;;;;13.00;9.13;;;;;;;;;;5003162;28;20204;-38
2022/04/01 11:20:02;;;;;;;12.23;8.97;;;;;;;;;;5008611;28;20761;-38
2022/04/01 11:22:39;;;;;;;14.30;9.60;;;;;;;;;;5006074;28;20941;-37
2022/04/01 11:25:14;;;;;;;14.53;9.23;;;;;;;;;;5006087;28;20183;-37
2022/04/01 11:27:48;;;;;;;11.60;8.27;;;;;;;;;;5006618;28;20180;-38
2022/04/01 11:30:16;;;;;;;12.03;8.47;;;;;;;;;;5007411;28;20206;-38
2022/04/01 11:32:47;;;;;;;15.43;9.03;;;;;;;;;;5005221;28;20886;-38
2022/04/01 11:35:16;;;;;;;16.13;8.63;;;;;;;;;;5006518;28;20387;-37
2022/04/01 11:37:46;;;;;;;10.87;8.53;;;;;;;;;;5008378;28;20219;-38
2022/04/01 11:40:17;;;;;;;14.47;8.37;;;;;;;;;;5006276;28;20862;-38
2022/04/01 11:42:53;;;;;;;13.40;8.33;;;;;;;;;;5004834;28;20725;-38
2022/04/01 11:45:20;;;;;;;15.10;8.97;;;;;;;;;;5004228;28;20458;-38
2022/04/01 11:47:46;;;;;;;10.83;8.20;;;;;;;;;;5008293;28;20227;-38
2022/04/01 11:50:14;;;;;;;13.93;8.20;;;;;;;;;;5002480;28;20207;-38
2022/04/01 11:52:48;;;;;;;12.37;9.43;;;;;;;;;;5006414;28;20196;-38
2022/04/01 11:55:16;;;;;;;12.73;9.03;;;;;;;;;;5008341;28;20171;-38
2022/04/01 11:57:42;;;;;;;13.37;9.87;;;;;;;;;;5004606;28;20836;-38
2022/04/01 12:00:13;;;;;;;12.43;8.50;;;;;;;;;;5006881;28;20184;-37
2022/04/01 12:02:39;;;;;;;11.70;8.50;;;;;;;;;;5004480;28;20199;-38
2022/04/01 12:05:06;;;;;;;11.43;8.77;;;;;;;;;;5003445;28;20187;-40
2022/04/01 12:10:19;;;;;;;11.57;8.67;;;;;;;;;;5004714;28;20199;-38
2022/04/01 12:12:53;;;;;;;11.10;8.87;;;;;;;;;;5005941;28;20207;-38
2022/04/01 12:15:19;;;;;;;14.63;8.40;;;;;;;;;;5005246;28;20227;-38
2022/04/01 12:17:51;;;;;;;14.97;9.13;;;;;;;;;;5006941;28;20180;-38
2022/04/01 12:20:19;;;;;;;12.83;8.30;;;;;;;;;;5005230;28;20808;-39
2022/04/01 12:22:45;;;;;;;14.20;8.57;;;;;;;;;;5003445;28;20778;-39
2022/04/01 12:25:12;;;;;;;15.60;8.90;;;;;;;;;;5007200;28;20635;-39
2022/04/01 12:27:53;;;;;;;12.80;8.20;;;;;;;;;;5009062;28;20408;-38
2022/04/01 12:30:28;;;;;;;11.80;8.03;;;;;;;;;;5004970;28;20176;-38
2022/04/01 12:33:00;;;;;;;14.93;8.33;;;;;;;;;;5007474;28;20192;-37
2022/04/01 12:35:26;;;;;;;16.50;8.77;;;;;;;;;;5005472;28;20296;-38
2022/04/01 12:38:09;;;;;;;15.73;8.63;;;;;;;;;;5007619;28;20672;-38
2022/04/01 12:40:56;;;;;;;12.80;8.17;;;;;;;;;;5008579;28;20687;-37
2022/04/01 12:43:34;;;;;;;13.97;8.77;;;;;;;;;;5001657;28;20176;-38
2022/04/01 12:46:19;;;;;;;14.33;8.40;;;;;;;;;;5003570;28;20180;-37
2022/04/01 12:48:53;;;;;;;11.67;7.50;;;;;;;;;;5007017;28;20183;-38
2022/04/01 12:51:20;;;;;;;12.17;7.67;;;;;;;;;;5005420;28;20180;-37
2022/04/01 12:54:05;;;;;;;14.37;8.63;;;;;;;;;;4985695;28;20748;-37
2022/04/01 12:56:31;;;;;;;14.73;7.63;;;;;;;;;;5002078;28;20436;-37
2022/04/01 12:59:04;;;;;;;12.13;7.03;;;;;;;;;;5004881;28;20419;-37
2022/04/01 13:01:31;;;;;;;11.50;7.10;;;;;;;;;;5007209;28;20168;-37
2022/04/01 13:03:58;;;;;;;12.50;7.13;;;;;;;;;;5005101;28;20740;-36
2022/04/01 13:06:25;;;;;;;11.60;6.73;;;;;;;;;;5002212;28;20184;-38
2022/04/01 13:09:08;;;;;;;12.10;8.33;;;;;;;;;;5001191;28;20496;-38
2022/04/01 13:11:44;;;;;;;15.93;8.73;;;;;;;;;;5001719;28;20657;-37
2022/04/01 13:14:19;;;;;;;9.97;4.83;;;;;;;;;;5004214;28;20202;-38
2022/04/01 13:16:46;;;;;;;9.53;5.43;;;;;;;;;;5002509;28;20180;-37
2022/04/01 13:19:23;;;;;;;8.20;4.90;;;;;;;;;;4999402;28;20654;-38
2022/04/01 13:21:49;;;;;;;11.93;4.90;;;;;;;;;;5003005;28;20989;-37
2022/04/01 13:24:19;;;;;;;10.00;4.50;;;;;;;;;;5004658;28;20613;-38
2022/04/01 13:26:45;;;;;;;10.10;5.03;;;;;;;;;;5006252;28;20198;-38
2022/04/01 13:29:11;;;;;;;7.63;4.23;;;;;;;;;;5003909;28;20265;-38
2022/04/01 13:31:40;;;;;;;7.80;4.87;;;;;;;;;;4998654;28;20203;-38
2022/04/01 13:34:07;;;;;;;7.00;4.10;;;;;;;;;;5001427;28;20188;-38
2022/04/01 13:36:33;;;;;;;8.10;4.07;;;;;;;;;;5004901;28;20262;-38
2022/04/01 13:39:00;;;;;;;8.50;3.70;;;;;;;;;;5002302;28;20528;-37
2022/04/01 13:41:26;;;;;;;7.60;3.80;;;;;;;;;;5001544;28;20184;-37
2022/04/01 13:43:52;;;;;;;8.40;3.70;;;;;;;;;;5005192;28;21049;-38
2022/04/01 13:46:20;;;;;;;6.10;3.67;;;;;;;;;;5001383;28;20707;-38
2022/04/01 13:48:46;;;;;;;9.40;3.90;;;;;;;;;;5002217;28;20952;-37
2022/04/01 13:51:13;;;;;;;7.27;4.00;;;;;;;;;;5005165;28;20488;-39
2022/04/01 13:53:39;;;;;;;7.90;3.70;;;;;;;;;;4987014;28;21029;-38
2022/04/01 13:56:05;;;;;;;9.13;3.70;;;;;;;;;;5002237;28;20569;-38
2022/04/01 13:58:31;;;;;;;5.90;3.33;;;;;;;;;;5003235;28;20182;-39
2022/04/01 14:00:58;;;;;;;8.27;3.40;;;;;;;;;;5003418;28;20190;-38
2022/04/01 14:03:24;;;;;;;8.30;3.70;;;;;;;;;;5001636;28;20190;-38
2022/04/01 14:05:51;;;;;;;7.37;3.47;;;;;;;;;;5002952;28;20324;-37
2022/04/01 14:08:17;;;;;;;6.63;3.33;;;;;;;;;;5005379;28;20720;-39
2022/04/01 14:10:45;;;;;;;9.53;4.10;;;;;;;;;;4980698;28;20189;-38
2022/04/01 14:13:11;;;;;;;8.57;4.10;;;;;;;;;;5003109;28;20203;-38
2022/04/01 14:15:37;;;;;;;7.03;3.43;;;;;;;;;;5006521;28;20294;-38
2022/04/01 14:18:03;;;;;;;5.43;3.33;;;;;;;;;;5004036;28;20178;-39
2022/04/01 14:20:29;;;;;;;5.23;2.97;;;;;;;;;;5003253;28;20838;-38
2022/04/01 14:22:56;;;;;;;6.07;2.90;;;;;;;;;;5003941;28;20329;-37
2022/04/01 14:25:23;;;;;;;7.70;3.80;;;;;;;;;;5007014;28;20430;-38
2022/04/01 14:27:49;;;;;;;20.27;5.00;;;;;;;;;;5004942;28;20506;-38
2022/04/01 14:30:18;;;;;;;7.83;3.50;;;;;;;;;;5002460;28;20203;-38
2022/04/01 14:32:52;;;;;;;7.00;3.80;;;;;;;;;;5002680;28;20311;-38
2022/04/01 14:35:19;;;;;;;11.30;7.13;;;;;;;;;;5006854;28;20719;-36
2022/04/01 14:37:46;;;;;;;18.47;10.53;;;;;;;;;;5006579;28;20466;-36
2022/04/01 14:40:12;;;;;;;14.83;10.87;;;;;;;;;;5006379;28;20966;-36
2022/04/01 14:42:38;;;;;;;17.80;11.93;;;;;;;;;;5002543;28;20540;-36
2022/04/01 14:45:05;;;;;;;17.87;12.37;;;;;;;;;;5003204;28;21493;-35
2022/04/01 14:47:31;;;;;;;17.13;11.90;;;;;;;;;;5005703;28;20447;-35